sensor_id;sensor_type;location;lat;lon;timestamp;pressure;altitude;pressure_sealevel;temperature;humidity
9721;BME280;4899;42.644;23.366;2023-01-31T00:00:29;93720.25;;;-0.31;100.00
9721;BME280;4899;42.644;23.366;2023-01-31T00:02:55;93740.25;;;-0.24;100.00
9721;BME280;4899;42.644;23.366;2023-01-31T00:05:21;93741.22;;;-0.31;100.00
9721;BME280;4899;42.644;23.366;2023-01-31T00:07:46;93749.81;;;-0.32;100.00
9721;BME280;4899;42.644;23.366;2023-01-31T00:10:12;93746.78;;;-0.34;100.00
9721;BME280;4899;42.644;23.366;2023-01-31T00:12:38;93754.63;;;-0.35;100.00
9721;BME280;4899;42.644;23.366;2023-01-31T00:15:04;93755.88;;;-0.33;100.00
9721;BME280;4899;42.644;23.366;2023-01-31T00:17:31;93751.34;;;-0.31;100.00
9721;BME280;4899;42.644;23.366;2023-01-31T00:19:56;93716.94;;;-0.52;100.00
9721;BME280;4899;42.644;23.366;2023-01-31T00:22:21;93743.75;;;-0.25;100.00
9721;BME280;4899;42.644;23.366;2023-01-31T00:24:47;93726.56;;;-0.28;100.00
9721;BME280;4899;42.644;23.366;2023-01-31T00:27:12;93723.81;;;-0.32;100.00
9721;BME280;4899;42.644;23.366;2023-01-31T00:29:38;93738.72;;;-0.36;100.00
9721;BME280;4899;42.644;23.366;2023-01-31T00:32:04;93738.97;;;-0.32;100.00
9721;BME280;4899;42.644;23.366;2023-01-31T00:34:29;93735.41;;;-0.31;100.00
9721;BME280;4899;42.644;23.366;2023-01-31T00:36:54;93727.59;;;-0.35;100.00
9721;BME280;4899;42.644;23.366;2023-01-31T00:39:20;93760.69;;;-0.41;100.00
9721;BME280;4899;42.644;23.366;2023-01-31T00:41:45;93756.38;;;-0.41;100.00
9721;BME280;4899;42.644;23.366;2023-01-31T00:44:11;93756.63;;;-0.42;100.00
9721;BME280;4899;42.644;23.366;2023-01-31T00:46:36;93746.53;;;-0.47;100.00
9721;BME280;4899;42.644;23.366;2023-01-31T00:49:02;93738.19;;;-0.48;100.00
9721;BME280;4899;42.644;23.366;2023-01-31T00:51:28;93753.59;;;-0.44;100.00
9721;BME280;4899;42.644;23.366;2023-01-31T00:53:53;93753.84;;;-0.41;100.00
9721;BME280;4899;42.644;23.366;2023-01-31T00:56:21;93741.22;;;-0.41;100.00
9721;BME280;4899;42.644;23.366;2023-01-31T00:58:48;93727.84;;;-0.46;100.00
9721;BME280;4899;42.644;23.366;2023-01-31T01:01:25;93723.03;;;-0.48;100.00
9721;BME280;4899;42.644;23.366;2023-01-31T01:03:51;93729.09;;;-0.44;100.00
9721;BME280;4899;42.644;23.366;2023-01-31T01:06:17;93736.44;;;-0.37;100.00
9721;BME280;4899;42.644;23.366;2023-01-31T01:08:44;93728.09;;;-0.43;100.00
9721;BME280;4899;42.644;23.366;2023-01-31T01:11:12;93739.22;;;-0.39;100.00
9721;BME280;4899;42.644;23.366;2023-01-31T01:13:39;93746.53;;;-0.37;100.00
9721;BME280;4899;42.644;23.366;2023-01-31T01:16:26;93756.63;;;-0.37;100.00
9721;BME280;4899;42.644;23.366;2023-01-31T01:18:52;93748.28;;;-0.43;100.00
9721;BME280;4899;42.644;23.366;2023-01-31T01:21:24;93757.91;;;-0.45;100.00
9721;BME280;4899;42.644;23.366;2023-01-31T01:23:54;93748.81;;;-0.46;100.00
9721;BME280;4899;42.644;23.366;2023-01-31T01:26:28;93734.66;;;-0.47;100.00
9721;BME280;4899;42.644;23.366;2023-01-31T01:28:56;93734.13;;;-0.54;100.00
9721;BME280;4899;42.644;23.366;2023-01-31T01:31:22;93751.84;;;-0.34;100.00
9721;BME280;4899;42.644;23.366;2023-01-31T01:33:56;93738.22;;;-0.22;100.00
9721;BME280;4899;42.644;23.366;2023-01-31T01:36:22;93731.66;;;-0.03;100.00
9721;BME280;4899;42.644;23.366;2023-01-31T01:38:48;93732.44;;;0.08;100.00
9721;BME280;4899;42.644;23.366;2023-01-31T01:41:14;93726.59;;;0.22;100.00
9721;BME280;4899;42.644;23.366;2023-01-31T01:46:06;93710.13;;;0.40;100.00
9721;BME280;4899;42.644;23.366;2023-01-31T01:48:33;93711.09;;;0.65;96.22
9721;BME280;4899;42.644;23.366;2023-01-31T01:50:58;93711.53;;;0.87;80.54
9721;BME280;4899;42.644;23.366;2023-01-31T01:53:26;93741.03;;;1.27;78.19
9721;BME280;4899;42.644;23.366;2023-01-31T01:55:58;93726.31;;;1.29;70.43
9721;BME280;4899;42.644;23.366;2023-01-31T02:01:32;93730.78;;;1.47;69.12
9721;BME280;4899;42.644;23.366;2023-01-31T02:03:59;93713.56;;;1.44;71.60
9721;BME280;4899;42.644;23.366;2023-01-31T02:06:25;93724.94;;;1.47;71.00
9721;BME280;4899;42.644;23.366;2023-01-31T02:08:52;93708.69;;;1.58;72.56
9721;BME280;4899;42.644;23.366;2023-01-31T02:11:27;93724.41;;;1.55;67.38
9721;BME280;4899;42.644;23.366;2023-01-31T02:14:03;93743.94;;;1.54;69.75
9721;BME280;4899;42.644;23.366;2023-01-31T02:16:29;93731.72;;;1.62;70.71
9721;BME280;4899;42.644;23.366;2023-01-31T02:18:56;93727.69;;;1.61;72.26
9721;BME280;4899;42.644;23.366;2023-01-31T02:21:49;93741.44;;;1.49;64.88
9721;BME280;4899;42.644;23.366;2023-01-31T02:41:03;93743.03;;;1.30;65.61
9721;BME280;4899;42.644;23.366;2023-01-31T02:46:58;93745.84;;;1.29;62.82
9721;BME280;4899;42.644;23.366;2023-01-31T02:49:46;93727.88;;;1.20;65.24
9721;BME280;4899;42.644;23.366;2023-01-31T02:52:20;93794.75;;;1.19;66.42
9721;BME280;4899;42.644;23.366;2023-01-31T02:57:34;93743.06;;;1.25;71.34
9721;BME280;4899;42.644;23.366;2023-01-31T03:00:02;93759.28;;;1.24;70.71
9721;BME280;4899;42.644;23.366;2023-01-31T03:02:28;93770.38;;;1.33;71.29
9721;BME280;4899;42.644;23.366;2023-01-31T03:04:54;93762.53;;;1.35;72.85
9721;BME280;4899;42.644;23.366;2023-01-31T03:07:22;93782.28;;;1.33;75.02
9721;BME280;4899;42.644;23.366;2023-01-31T03:10:15;93774.44;;;1.34;74.44
9721;BME280;4899;42.644;23.366;2023-01-31T03:12:49;93833.22;;;1.31;77.79
9721;BME280;4899;42.644;23.366;2023-01-31T03:18:11;93781.56;;;1.22;81.07
9721;BME280;4899;42.644;23.366;2023-01-31T03:21:05;93802.59;;;1.17;84.43
9721;BME280;4899;42.644;23.366;2023-01-31T03:23:34;93802.84;;;1.21;84.69
9721;BME280;4899;42.644;23.366;2023-01-31T03:26:03;93793.22;;;1.18;86.48
9721;BME280;4899;42.644;23.366;2023-01-31T03:28:32;93802.34;;;1.19;88.29
9721;BME280;4899;42.644;23.366;2023-01-31T03:31:06;93793.19;;;1.23;90.33
9721;BME280;4899;42.644;23.366;2023-01-31T03:33:37;93793.78;;;1.00;94.42
9721;BME280;4899;42.644;23.366;2023-01-31T03:44:34;93836.00;;;1.19;100.00
9721;BME280;4899;42.644;23.366;2023-01-31T03:47:05;93840.34;;;1.09;100.00
9721;BME280;4899;42.644;23.366;2023-01-31T03:49:37;93837.59;;;0.95;100.00
9721;BME280;4899;42.644;23.366;2023-01-31T03:52:08;93848.97;;;1.03;100.00
9721;BME280;4899;42.644;23.366;2023-01-31T03:54:39;93843.41;;;0.96;100.00
9721;BME280;4899;42.644;23.366;2023-01-31T03:57:35;93844.44;;;1.00;100.00
9721;BME280;4899;42.644;23.366;2023-01-31T04:00:07;93833.53;;;0.94;100.00
9721;BME280;4899;42.644;23.366;2023-01-31T04:02:35;93860.38;;;0.95;100.00
9721;BME280;4899;42.644;23.366;2023-01-31T04:05:15;93845.97;;;0.85;100.00
9721;BME280;4899;42.644;23.366;2023-01-31T04:07:42;93839.91;;;0.66;100.00
9721;BME280;4899;42.644;23.366;2023-01-31T04:10:14;93834.84;;;0.66;100.00
9721;BME280;4899;42.644;23.366;2023-01-31T04:12:40;93862.16;;;0.69;100.00
9721;BME280;4899;42.644;23.366;2023-01-31T04:15:07;93863.19;;;0.63;100.00
9721;BME280;4899;42.644;23.366;2023-01-31T04:17:32;93850.28;;;0.59;100.00
9721;BME280;4899;42.644;23.366;2023-01-31T04:19:58;93861.41;;;0.64;100.00
9721;BME280;4899;42.644;23.366;2023-01-31T04:22:24;93902.91;;;0.57;100.00
9721;BME280;4899;42.644;23.366;2023-01-31T04:24:50;93810.03;;;0.43;100.00
9721;BME280;4899;42.644;23.366;2023-01-31T04:27:15;93861.91;;;0.55;100.00
9721;BME280;4899;42.644;23.366;2023-01-31T04:29:41;93849.50;;;0.49;100.00
9721;BME280;4899;42.644;23.366;2023-01-31T04:32:06;93889.72;;;0.45;100.00
9721;BME280;4899;42.644;23.366;2023-01-31T04:34:32;93914.25;;;0.45;100.00
9721;BME280;4899;42.644;23.366;2023-01-31T04:36:57;93858.88;;;0.38;100.00
9721;BME280;4899;42.644;23.366;2023-01-31T04:39:23;93927.41;;;0.32;100.00
9721;BME280;4899;42.644;23.366;2023-01-31T04:41:48;93870.00;;;0.27;100.00
9721;BME280;4899;42.644;23.366;2023-01-31T04:44:14;93889.22;;;0.33;100.00
9721;BME280;4899;42.644;23.366;2023-01-31T04:46:41;93894.53;;;0.32;100.00
9721;BME280;4899;42.644;23.366;2023-01-31T04:49:06;93879.34;;;0.32;100.00
9721;BME280;4899;42.644;23.366;2023-01-31T04:51:32;93900.84;;;0.39;100.00
9721;BME280;4899;42.644;23.366;2023-01-31T04:53:58;93887.94;;;0.41;100.00
9721;BME280;4899;42.644;23.366;2023-01-31T04:56:23;93881.13;;;0.31;100.00
9721;BME280;4899;42.644;23.366;2023-01-31T04:58:49;93905.91;;;0.34;100.00
9721;BME280;4899;42.644;23.366;2023-01-31T05:01:14;93899.59;;;0.32;100.00
9721;BME280;4899;42.644;23.366;2023-01-31T05:03:40;93900.59;;;0.41;100.00
9721;BME280;4899;42.644;23.366;2023-01-31T05:06:05;93934.50;;;0.35;100.00
9721;BME280;4899;42.644;23.366;2023-01-31T05:08:31;93873.25;;;0.17;100.00
9721;BME280;4899;42.644;23.366;2023-01-31T05:11:01;93881.13;;;0.31;100.00
9721;BME280;4899;42.644;23.366;2023-01-31T05:13:27;93872.53;;;0.42;100.00
9721;BME280;4899;42.644;23.366;2023-01-31T05:15:54;93893.53;;;0.43;100.00
9721;BME280;4899;42.644;23.366;2023-01-31T05:18:22;93938.53;;;0.41;100.00
9721;BME280;4899;42.644;23.366;2023-01-31T05:20:48;93899.34;;;0.38;100.00
9721;BME280;4899;42.644;23.366;2023-01-31T05:23:15;93886.19;;;0.36;100.00
9721;BME280;4899;42.644;23.366;2023-01-31T05:25:41;93900.84;;;0.44;100.00
9721;BME280;4899;42.644;23.366;2023-01-31T05:28:07;93908.19;;;0.46;100.00
9721;BME280;4899;42.644;23.366;2023-01-31T05:30:33;93907.72;;;0.54;100.00
9721;BME280;4899;42.644;23.366;2023-01-31T05:32:58;93882.13;;;0.45;100.00
9721;BME280;4899;42.644;23.366;2023-01-31T05:35:24;93936.06;;;0.56;100.00
9721;BME280;4899;42.644;23.366;2023-01-31T05:37:52;93888.47;;;0.58;100.00
9721;BME280;4899;42.644;23.366;2023-01-31T05:40:18;93902.63;;;0.49;100.00
9721;BME280;4899;42.644;23.366;2023-01-31T05:42:43;93912.78;;;0.64;100.00
9721;BME280;4899;42.644;23.366;2023-01-31T05:45:10;93911.50;;;0.67;100.00
9721;BME280;4899;42.644;23.366;2023-01-31T05:47:36;93931.50;;;0.73;100.00
9721;BME280;4899;42.644;23.366;2023-01-31T05:50:02;93908.97;;;0.72;100.00
9721;BME280;4899;42.644;23.366;2023-01-31T05:52:28;93898.59;;;0.73;100.00
9721;BME280;4899;42.644;23.366;2023-01-31T05:54:54;93923.41;;;0.71;100.00
9721;BME280;4899;42.644;23.366;2023-01-31T05:57:19;93967.72;;;0.79;100.00
9721;BME280;4899;42.644;23.366;2023-01-31T05:59:45;93925.69;;;0.83;100.00
9721;BME280;4899;42.644;23.366;2023-01-31T06:02:12;93930.75;;;0.73;100.00
9721;BME280;4899;42.644;23.366;2023-01-31T06:04:37;93920.38;;;0.79;100.00
9721;BME280;4899;42.644;23.366;2023-01-31T06:07:03;93923.69;;;0.80;100.00
9721;BME280;4899;42.644;23.366;2023-01-31T06:09:29;93918.34;;;0.66;100.00
9721;BME280;4899;42.644;23.366;2023-01-31T06:11:54;93891.78;;;0.69;100.00
9721;BME280;4899;42.644;23.366;2023-01-31T06:14:20;93904.19;;;0.80;100.00
9721;BME280;4899;42.644;23.366;2023-01-31T06:16:45;93929.50;;;0.85;100.00
9721;BME280;4899;42.644;23.366;2023-01-31T06:19:11;93928.47;;;0.81;100.00
9721;BME280;4899;42.644;23.366;2023-01-31T06:21:38;93925.94;;;0.91;100.00
9721;BME280;4899;42.644;23.366;2023-01-31T06:24:04;93973.53;;;0.84;100.00
9721;BME280;4899;42.644;23.366;2023-01-31T06:26:29;93938.34;;;0.88;100.00
9721;BME280;4899;42.644;23.366;2023-01-31T06:28:56;93935.81;;;0.88;100.00
9721;BME280;4899;42.644;23.366;2023-01-31T06:31:23;93941.63;;;0.99;100.00
9721;BME280;4899;42.644;23.366;2023-01-31T06:33:48;93969.47;;;0.99;100.00
9721;BME280;4899;42.644;23.366;2023-01-31T06:36:15;93943.41;;;1.08;100.00
9721;BME280;4899;42.644;23.366;2023-01-31T06:38:40;93937.09;;;1.06;100.00
9721;BME280;4899;42.644;23.366;2023-01-31T06:41:06;93938.09;;;1.15;100.00
9721;BME280;4899;42.644;23.366;2023-01-31T06:43:31;93957.84;;;1.13;100.00
9721;BME280;4899;42.644;23.366;2023-01-31T06:45:57;93954.56;;;1.02;100.00
9721;BME280;4899;42.644;23.366;2023-01-31T06:48:22;93958.88;;;1.07;100.00
9721;BME280;4899;42.644;23.366;2023-01-31T06:50:48;93969.00;;;1.07;100.00
9721;BME280;4899;42.644;23.366;2023-01-31T06:53:13;93960.88;;;1.15;100.00
9721;BME280;4899;42.644;23.366;2023-01-31T06:55:39;93979.38;;;1.15;100.00
9721;BME280;4899;42.644;23.366;2023-01-31T06:58:04;93997.59;;;0.97;100.00
9721;BME280;4899;42.644;23.366;2023-01-31T07:00:30;93972.81;;;1.04;100.00
9721;BME280;4899;42.644;23.366;2023-01-31T07:02:55;93969.50;;;0.78;100.00
9721;BME280;4899;42.644;23.366;2023-01-31T07:05:21;93979.06;;;0.61;100.00
9721;BME280;4899;42.644;23.366;2023-01-31T07:07:47;93958.84;;;0.76;100.00
9721;BME280;4899;42.644;23.366;2023-01-31T07:10:14;93954.03;;;0.95;100.00
9721;BME280;4899;42.644;23.366;2023-01-31T07:12:40;93958.34;;;0.95;100.00
9721;BME280;4899;42.644;23.366;2023-01-31T07:15:06;93975.59;;;1.08;100.00
9721;BME280;4899;42.644;23.366;2023-01-31T07:17:32;93954.31;;;1.14;100.00
9721;BME280;4899;42.644;23.366;2023-01-31T07:19:58;93972.28;;;1.17;100.00
9721;BME280;4899;42.644;23.366;2023-01-31T07:22:23;93969.72;;;1.43;100.00
9721;BME280;4899;42.644;23.366;2023-01-31T07:24:49;93966.41;;;1.47;100.00
9721;BME280;4899;42.644;23.366;2023-01-31T07:27:15;93968.47;;;1.35;100.00
9721;BME280;4899;42.644;23.366;2023-01-31T07:29:41;93977.63;;;1.26;100.00
9721;BME280;4899;42.644;23.366;2023-01-31T07:32:08;93970.00;;;1.26;100.00
9721;BME280;4899;42.644;23.366;2023-01-31T07:34:34;93969.50;;;1.29;100.00
9721;BME280;4899;42.644;23.366;2023-01-31T07:36:59;93974.03;;;1.42;100.00
9721;BME280;4899;42.644;23.366;2023-01-31T07:39:25;93975.56;;;1.23;100.00
9721;BME280;4899;42.644;23.366;2023-01-31T07:41:51;93990.50;;;1.40;100.00
9721;BME280;4899;42.644;23.366;2023-01-31T07:44:17;93962.66;;;1.35;100.00
9721;BME280;4899;42.644;23.366;2023-01-31T07:46:43;93967.44;;;1.51;100.00
9721;BME280;4899;42.644;23.366;2023-01-31T07:49:09;93963.66;;;1.49;100.00
9721;BME280;4899;42.644;23.366;2023-01-31T07:51:35;93997.09;;;1.41;100.00
9721;BME280;4899;42.644;23.366;2023-01-31T07:54:01;93972.78;;;1.35;100.00
9721;BME280;4899;42.644;23.366;2023-01-31T07:56:27;93967.44;;;1.41;100.00
9721;BME280;4899;42.644;23.366;2023-01-31T07:58:52;93970.22;;;1.45;100.00
9721;BME280;4899;42.644;23.366;2023-01-31T08:01:21;94000.13;;;1.53;100.00
9721;BME280;4899;42.644;23.366;2023-01-31T08:04:07;93973.00;;;1.74;100.00
9721;BME280;4899;42.644;23.366;2023-01-31T08:06:33;93949.19;;;1.54;100.00
9721;BME280;4899;42.644;23.366;2023-01-31T08:08:59;93968.41;;;1.76;100.00
9721;BME280;4899;42.644;23.366;2023-01-31T08:11:25;93957.78;;;1.69;100.00
9721;BME280;4899;42.644;23.366;2023-01-31T08:13:51;93987.16;;;1.70;100.00
9721;BME280;4899;42.644;23.366;2023-01-31T08:16:17;93958.25;;;1.81;100.00
9721;BME280;4899;42.644;23.366;2023-01-31T08:18:44;93944.06;;;1.80;100.00
9721;BME280;4899;42.644;23.366;2023-01-31T08:21:11;93956.19;;;1.88;100.00
9721;BME280;4899;42.644;23.366;2023-01-31T08:23:37;93950.94;;;1.64;100.00
9721;BME280;4899;42.644;23.366;2023-01-31T08:26:07;93957.50;;;1.80;100.00
9721;BME280;4899;42.644;23.366;2023-01-31T08:28:36;93948.63;;;1.73;100.00
9721;BME280;4899;42.644;23.366;2023-01-31T08:31:02;93965.31;;;1.99;100.00
9721;BME280;4899;42.644;23.366;2023-01-31T08:33:28;93970.88;;;2.01;100.00
9721;BME280;4899;42.644;23.366;2023-01-31T08:35:53;93960.28;;;1.84;100.00
9721;BME280;4899;42.644;23.366;2023-01-31T08:38:19;93960.75;;;2.01;100.00
9721;BME280;4899;42.644;23.366;2023-01-31T08:40:44;93964.03;;;1.92;100.00
9721;BME280;4899;42.644;23.366;2023-01-31T08:43:10;93943.84;;;1.66;100.00
9721;BME280;4899;42.644;23.366;2023-01-31T08:45:36;93948.03;;;2.06;100.00
9721;BME280;4899;42.644;23.366;2023-01-31T08:48:02;93944.25;;;2.04;100.00
9721;BME280;4899;42.644;23.366;2023-01-31T08:50:29;93956.59;;;2.15;100.00
9721;BME280;4899;42.644;23.366;2023-01-31T08:52:58;93954.16;;;2.00;100.00
9721;BME280;4899;42.644;23.366;2023-01-31T08:55:25;93953.59;;;2.08;100.00
9721;BME280;4899;42.644;23.366;2023-01-31T08:57:52;93954.16;;;2.00;100.00
9721;BME280;4899;42.644;23.366;2023-01-31T09:00:19;93972.63;;;2.06;100.00
9721;BME280;4899;42.644;23.366;2023-01-31T09:02:53;93968.34;;;2.01;100.00
9721;BME280;4899;42.644;23.366;2023-01-31T09:05:19;93954.84;;;2.11;100.00
9721;BME280;4899;42.644;23.366;2023-01-31T09:07:44;93990.38;;;2.11;100.00
9721;BME280;4899;42.644;23.366;2023-01-31T09:10:10;93959.41;;;2.14;100.00
9721;BME280;4899;42.644;23.366;2023-01-31T09:12:36;93975.00;;;2.41;100.00
9721;BME280;4899;42.644;23.366;2023-01-31T09:15:03;93965.00;;;2.65;100.00
9721;BME280;4899;42.644;23.366;2023-01-31T09:17:29;93969.81;;;3.06;100.00
9721;BME280;4899;42.644;23.366;2023-01-31T09:19:55;93957.47;;;2.89;100.00
9721;BME280;4899;42.644;23.366;2023-01-31T09:22:21;93957.75;;;2.88;100.00
9721;BME280;4899;42.644;23.366;2023-01-31T09:24:47;93985.00;;;2.77;100.00
9721;BME280;4899;42.644;23.366;2023-01-31T09:27:13;93960.53;;;2.42;100.00
9721;BME280;4899;42.644;23.366;2023-01-31T09:29:39;93964.00;;;2.61;100.00
9721;BME280;4899;42.644;23.366;2023-01-31T09:32:04;93964.69;;;2.77;100.00
9721;BME280;4899;42.644;23.366;2023-01-31T09:34:30;93996.16;;;2.76;100.00
9721;BME280;4899;42.644;23.366;2023-01-31T09:36:56;93936.03;;;2.66;100.00
9721;BME280;4899;42.644;23.366;2023-01-31T09:39:23;93962.69;;;2.69;100.00
9721;BME280;4899;42.644;23.366;2023-01-31T09:46:58;93933.94;;;2.78;100.00
9721;BME280;4899;42.644;23.366;2023-01-31T09:49:41;93931.44;;;2.73;100.00
9721;BME280;4899;42.644;23.366;2023-01-31T09:52:09;93957.69;;;2.93;100.00
9721;BME280;4899;42.644;23.366;2023-01-31T09:54:37;93940.50;;;2.85;100.00
9721;BME280;4899;42.644;23.366;2023-01-31T09:57:19;93924.03;;;3.11;100.00
9721;BME280;4899;42.644;23.366;2023-01-31T10:10:49;93931.34;;;2.84;100.00
9721;BME280;4899;42.644;23.366;2023-01-31T10:15:48;93913.88;;;3.11;100.00
9721;BME280;4899;42.644;23.366;2023-01-31T10:18:25;93932.91;;;2.80;100.00
9721;BME280;4899;42.644;23.366;2023-01-31T10:21:18;93929.00;;;2.58;100.00
9721;BME280;4899;42.644;23.366;2023-01-31T10:26:24;93924.00;;;2.82;100.00
9721;BME280;4899;42.644;23.366;2023-01-31T10:32:11;93908.63;;;3.55;100.00
9721;BME280;4899;42.644;23.366;2023-01-31T10:34:50;93919.63;;;3.51;100.00
9721;BME280;4899;42.644;23.366;2023-01-31T10:39:53;93923.06;;;3.36;99.08
9721;BME280;4899;42.644;23.366;2023-01-31T10:42:30;93906.94;;;3.46;100.00
9721;BME280;4899;42.644;23.366;2023-01-31T10:45:16;93912.78;;;3.70;98.77
9721;BME280;4899;42.644;23.366;2023-01-31T10:47:58;93918.09;;;3.50;99.63
9721;BME280;4899;42.644;23.366;2023-01-31T10:51:06;93936.25;;;3.38;100.00
9721;BME280;4899;42.644;23.366;2023-01-31T10:56:33;93928.44;;;3.58;100.00
9721;BME280;4899;42.644;23.366;2023-01-31T10:59:17;93917.28;;;3.30;100.00
9721;BME280;4899;42.644;23.366;2023-01-31T11:01:46;93909.50;;;3.17;100.00
9721;BME280;4899;42.644;23.366;2023-01-31T11:04:31;93911.53;;;2.86;100.00
9721;BME280;4899;42.644;23.366;2023-01-31T11:06:59;93917.19;;;2.72;100.00
9721;BME280;4899;42.644;23.366;2023-01-31T11:09:29;93927.16;;;2.64;100.00
9721;BME280;4899;42.644;23.366;2023-01-31T11:11:59;93910.38;;;2.68;100.00
9721;BME280;4899;42.644;23.366;2023-01-31T11:14:25;93914.81;;;2.86;100.00
9721;BME280;4899;42.644;23.366;2023-01-31T11:52:59;93916.19;;;2.34;100.00
9721;BME280;4899;42.644;23.366;2023-01-31T11:55:25;93893.81;;;2.41;100.00
9721;BME280;4899;42.644;23.366;2023-01-31T11:57:57;93918.94;;;2.38;100.00
9721;BME280;4899;42.644;23.366;2023-01-31T12:00:26;93920.16;;;2.45;100.00
9721;BME280;4899;42.644;23.366;2023-01-31T12:03:04;93904.28;;;2.30;100.00
9721;BME280;4899;42.644;23.366;2023-01-31T12:05:43;93917.53;;;2.16;100.00
9721;BME280;4899;42.644;23.366;2023-01-31T12:08:30;93913.06;;;1.93;100.00
9721;BME280;4899;42.644;23.366;2023-01-31T12:10:57;93911.56;;;1.92;100.00
9721;BME280;4899;42.644;23.366;2023-01-31T12:13:24;93912.63;;;1.81;100.00
9721;BME280;4899;42.644;23.366;2023-01-31T12:16:01;93914.66;;;1.79;100.00
9721;BME280;4899;42.644;23.366;2023-01-31T12:24:06;93919.66;;;1.94;100.00
9721;BME280;4899;42.644;23.366;2023-01-31T12:26:55;93897.06;;;2.03;100.00
9721;BME280;4899;42.644;23.366;2023-01-31T12:29:45;93923.44;;;1.97;100.00
9721;BME280;4899;42.644;23.366;2023-01-31T12:32:24;93952.09;;;1.97;100.00
9721;BME280;4899;42.644;23.366;2023-01-31T12:49:12;93903.72;;;2.38;100.00
9721;BME280;4899;42.644;23.366;2023-01-31T12:57:43;93925.78;;;2.42;100.00
9721;BME280;4899;42.644;23.366;2023-01-31T13:00:39;93910.00;;;2.45;100.00
9721;BME280;4899;42.644;23.366;2023-01-31T13:05:58;93937.47;;;1.79;100.00
9721;BME280;4899;42.644;23.366;2023-01-31T13:08:30;93928.38;;;1.68;100.00
9721;BME280;4899;42.644;23.366;2023-01-31T13:11:43;93914.72;;;1.48;100.00
9721;BME280;4899;42.644;23.366;2023-01-31T13:14:10;93922.34;;;1.43;100.00
9721;BME280;4899;42.644;23.366;2023-01-31T13:16:41;93925.38;;;1.56;100.00
9721;BME280;4899;42.644;23.366;2023-01-31T13:19:29;93917.50;;;1.62;100.00
9721;BME280;4899;42.644;23.366;2023-01-31T13:22:01;93931.69;;;1.63;100.00
9721;BME280;4899;42.644;23.366;2023-01-31T13:24:39;93951.22;;;1.58;100.00
9721;BME280;4899;42.644;23.366;2023-01-31T13:27:20;93938.28;;;1.64;100.00
9721;BME280;4899;42.644;23.366;2023-01-31T13:29:58;93941.84;;;1.58;100.00
9721;BME280;4899;42.644;23.366;2023-01-31T13:35:00;93933.94;;;1.70;100.00
9721;BME280;4899;42.644;23.366;2023-01-31T13:37:29;93932.91;;;1.71;100.00
9721;BME280;4899;42.644;23.366;2023-01-31T13:40:18;93938.00;;;1.66;100.00
9721;BME280;4899;42.644;23.366;2023-01-31T13:42:44;93937.50;;;1.64;100.00
9721;BME280;4899;42.644;23.366;2023-01-31T13:45:26;93935.19;;;1.72;100.00
9721;BME280;4899;42.644;23.366;2023-01-31T13:48:05;93953.97;;;1.71;100.00
9721;BME280;4899;42.644;23.366;2023-01-31T13:50:40;93937.00;;;1.67;100.00
9721;BME280;4899;42.644;23.366;2023-01-31T13:53:14;93950.94;;;1.74;100.00
9721;BME280;4899;42.644;23.366;2023-01-31T13:55:45;93953.69;;;1.73;100.00
9721;BME280;4899;42.644;23.366;2023-01-31T13:58:19;93949.91;;;1.75;100.00
9721;BME280;4899;42.644;23.366;2023-01-31T14:00:48;93950.94;;;1.64;100.00
9721;BME280;4899;42.644;23.366;2023-01-31T14:03:23;93972.22;;;1.63;100.00
9721;BME280;4899;42.644;23.366;2023-01-31T14:06:00;93947.38;;;1.65;100.00
9721;BME280;4899;42.644;23.366;2023-01-31T14:10:53;93958.03;;;1.67;100.00
9721;BME280;4899;42.644;23.366;2023-01-31T14:13:39;93955.25;;;1.74;100.00
9721;BME280;4899;42.644;23.366;2023-01-31T14:16:32;93957.25;;;1.72;100.00
9721;BME280;4899;42.644;23.366;2023-01-31T14:18:59;93939.00;;;1.70;100.00
9721;BME280;4899;42.644;23.366;2023-01-31T14:23:57;93954.22;;;1.80;100.00
9721;BME280;4899;42.644;23.366;2023-01-31T14:29:21;93952.94;;;1.82;100.00
9721;BME280;4899;42.644;23.366;2023-01-31T14:31:48;93976.00;;;1.81;100.00
9721;BME280;4899;42.644;23.366;2023-01-31T14:34:21;93961.78;;;1.85;100.00
9721;BME280;4899;42.644;23.366;2023-01-31T14:48:17;93986.88;;;1.87;100.00
9721;BME280;4899;42.644;23.366;2023-01-31T14:51:13;93985.63;;;1.84;100.00
9721;BME280;4899;42.644;23.366;2023-01-31T14:58:48;93983.66;;;1.56;100.00
9721;BME280;4899;42.644;23.366;2023-01-31T15:01:17;94004.66;;;1.71;100.00
9721;BME280;4899;42.644;23.366;2023-01-31T15:03:53;94026.22;;;1.69;100.00
9721;BME280;4899;42.644;23.366;2023-01-31T15:06:26;94020.63;;;1.67;100.00
9721;BME280;4899;42.644;23.366;2023-01-31T15:09:17;94028.47;;;1.70;100.00
9721;BME280;4899;42.644;23.366;2023-01-31T15:11:55;94012.31;;;1.56;100.00
9721;BME280;4899;42.644;23.366;2023-01-31T15:14:34;94034.09;;;1.62;100.00
9721;BME280;4899;42.644;23.366;2023-01-31T15:17:16;94020.16;;;1.49;100.00
9721;BME280;4899;42.644;23.366;2023-01-31T15:19:54;94033.59;;;1.50;100.00
9721;BME280;4899;42.644;23.366;2023-01-31T15:22:21;94032.81;;;1.44;100.00
9721;BME280;4899;42.644;23.366;2023-01-31T15:24:50;94035.59;;;1.43;100.00
9721;BME280;4899;42.644;23.366;2023-01-31T15:27:26;94034.84;;;1.47;100.00
9721;BME280;4899;42.644;23.366;2023-01-31T15:30:03;94042.19;;;1.34;100.00
9721;BME280;4899;42.644;23.366;2023-01-31T15:32:36;94036.38;;;1.33;100.00
9721;BME280;4899;42.644;23.366;2023-01-31T15:35:28;94031.31;;;1.33;100.00
9721;BME280;4899;42.644;23.366;2023-01-31T15:38:08;94031.31;;;1.33;100.00
9721;BME280;4899;42.644;23.366;2023-01-31T15:40:36;94037.13;;;1.29;100.00
9721;BME280;4899;42.644;23.366;2023-01-31T15:43:20;94042.47;;;1.32;100.00
9721;BME280;4899;42.644;23.366;2023-01-31T15:45:46;94038.38;;;1.21;100.00
9721;BME280;4899;42.644;23.366;2023-01-31T15:48:17;94065.50;;;1.26;100.00
9721;BME280;4899;42.644;23.366;2023-01-31T15:53:15;94057.66;;;1.27;100.00
9721;BME280;4899;42.644;23.366;2023-01-31T15:55:43;94047.53;;;1.27;100.00
9721;BME280;4899;42.644;23.366;2023-01-31T15:58:22;94072.34;;;1.30;100.00
9721;BME280;4899;42.644;23.366;2023-01-31T16:00:53;94065.75;;;1.29;100.00
9721;BME280;4899;42.644;23.366;2023-01-31T16:03:22;94061.97;;;1.27;100.00
9721;BME280;4899;42.644;23.366;2023-01-31T16:05:50;94064.22;;;1.23;100.00
9721;BME280;4899;42.644;23.366;2023-01-31T16:08:31;94063.22;;;1.29;100.00